Time;durP1;ratioP1;P1;durP2;ratioP2;P2;SDS_P1;SDS_P2;PMS_P1;PMS_P2;Temp;Humidity;BMP_temperature;BMP_pressure;BME280_temperature;BME280_humidity;BME280_pressure;Samples;Min_cycle;Max_cycle;Signal;HPM_P1;HPM_P2
2024/03/03 00:00:46;;;;;;;5.60;4.43;;;;;;;;;;5111690;28;20233;-84
2024/03/03 00:03:14;;;;;;;5.80;4.40;;;;;;;;;;5111865;28;20201;-84
2024/03/03 00:05:41;;;;;;;6.47;4.03;;;;;;;;;;5112326;28;20648;-83
2024/03/03 00:08:08;;;;;;;5.83;4.70;;;;;;;;;;5111581;28;20275;-83
2024/03/03 00:10:36;;;;;;;5.57;4.70;;;;;;;;;;5112240;28;20193;-83
2024/03/03 00:13:04;;;;;;;5.47;4.23;;;;;;;;;;5123609;27;20203;-84
2024/03/03 00:15:32;;;;;;;6.40;4.50;;;;;;;;;;5131896;27;20653;-84
2024/03/03 00:17:59;;;;;;;5.83;4.60;;;;;;;;;;5111495;28;20202;-84
2024/03/03 00:20:26;;;;;;;8.23;4.93;;;;;;;;;;5111740;28;20225;-85
2024/03/03 00:22:54;;;;;;;6.60;5.03;;;;;;;;;;5111641;28;20612;-84
2024/03/03 00:25:21;;;;;;;5.70;4.60;;;;;;;;;;5111702;28;20201;-84
2024/03/03 00:27:48;;;;;;;8.10;5.30;;;;;;;;;;5112176;28;20387;-84
2024/03/03 00:30:17;;;;;;;6.67;4.87;;;;;;;;;;5112349;28;20618;-84
2024/03/03 00:32:45;;;;;;;6.77;5.10;;;;;;;;;;5112187;28;20197;-84
2024/03/03 00:35:13;;;;;;;6.27;4.80;;;;;;;;;;5111552;28;20329;-84
2024/03/03 00:37:40;;;;;;;6.97;5.07;;;;;;;;;;5111886;28;20202;-84
2024/03/03 00:40:08;;;;;;;5.80;4.80;;;;;;;;;;5112232;28;20742;-84
2024/03/03 00:42:36;;;;;;;6.53;4.70;;;;;;;;;;5111253;28;20391;-83
2024/03/03 00:45:03;;;;;;;7.37;4.87;;;;;;;;;;5111011;28;20224;-84
2024/03/03 00:47:31;;;;;;;9.37;4.87;;;;;;;;;;5111976;28;20568;-85
2024/03/03 00:49:59;;;;;;;6.70;5.30;;;;;;;;;;5111447;28;20636;-85
2024/03/03 00:52:26;;;;;;;7.03;4.83;;;;;;;;;;5110981;28;20670;-84
2024/03/03 00:54:53;;;;;;;7.67;5.20;;;;;;;;;;5111751;28;20283;-84
2024/03/03 00:57:20;;;;;;;7.70;5.40;;;;;;;;;;5110993;28;20267;-84
2024/03/03 00:59:48;;;;;;;11.23;6.50;;;;;;;;;;5110743;28;20197;-84
2024/03/03 01:02:15;;;;;;;9.83;6.77;;;;;;;;;;5111155;28;20240;-84
2024/03/03 01:04:43;;;;;;;15.80;10.00;;;;;;;;;;5111088;28;20288;-84
2024/03/03 01:07:11;;;;;;;11.10;8.23;;;;;;;;;;5111133;28;20642;-84
2024/03/03 01:09:38;;;;;;;12.30;8.40;;;;;;;;;;5111311;28;20225;-84
2024/03/03 01:12:05;;;;;;;11.93;8.00;;;;;;;;;;5114609;27;20196;-84
2024/03/03 01:14:33;;;;;;;11.00;8.03;;;;;;;;;;5114904;27;20218;-84
2024/03/03 01:17:00;;;;;;;11.23;8.33;;;;;;;;;;5110468;28;20824;-84
2024/03/03 01:19:27;;;;;;;11.07;8.00;;;;;;;;;;5111032;28;20226;-85
2024/03/03 01:21:56;;;;;;;10.33;7.73;;;;;;;;;;5110804;28;20219;-84
2024/03/03 01:24:23;;;;;;;12.00;7.80;;;;;;;;;;5110450;28;20612;-84
2024/03/03 01:26:50;;;;;;;12.47;8.00;;;;;;;;;;5110799;28;20203;-84
2024/03/03 01:29:17;;;;;;;14.30;9.37;;;;;;;;;;5110737;28;20280;-84
2024/03/03 01:31:45;;;;;;;15.47;9.67;;;;;;;;;;5110557;28;20546;-84
2024/03/03 01:34:12;;;;;;;13.77;9.63;;;;;;;;;;5110595;28;20304;-83
2024/03/03 01:36:39;;;;;;;19.37;13.50;;;;;;;;;;5110468;28;20267;-85
2024/03/03 01:39:09;;;;;;;18.77;12.23;;;;;;;;;;5110602;28;20285;-84
2024/03/03 01:41:36;;;;;;;12.00;9.23;;;;;;;;;;5110446;28;20755;-84
2024/03/03 01:44:04;;;;;;;29.43;14.47;;;;;;;;;;5109512;28;20288;-84
2024/03/03 01:46:31;;;;;;;23.17;13.60;;;;;;;;;;5110537;28;20646;-83
2024/03/03 01:48:58;;;;;;;21.00;12.47;;;;;;;;;;5110701;28;20197;-85
2024/03/03 01:51:25;;;;;;;23.60;13.23;;;;;;;;;;5092071;28;20672;-84
2024/03/03 01:53:53;;;;;;;21.73;12.23;;;;;;;;;;5109516;28;20291;-84
2024/03/03 01:56:23;;;;;;;19.80;12.13;;;;;;;;;;5110032;28;20708;-84
2024/03/03 01:58:51;;;;;;;21.33;12.20;;;;;;;;;;5111129;28;20595;-85
2024/03/03 02:01:19;;;;;;;22.17;12.37;;;;;;;;;;5110522;28;20204;-84
2024/03/03 02:03:46;;;;;;;19.53;11.93;;;;;;;;;;5110228;28;20202;-84
2024/03/03 02:06:16;;;;;;;20.37;12.47;;;;;;;;;;5110462;28;20250;-84
2024/03/03 02:08:43;;;;;;;18.47;11.43;;;;;;;;;;5103862;28;20584;-84
2024/03/03 02:11:11;;;;;;;17.83;10.67;;;;;;;;;;5102126;28;20738;-84
2024/03/03 02:13:39;;;;;;;15.60;10.80;;;;;;;;;;5109829;28;20775;-84
2024/03/03 02:16:07;;;;;;;19.03;13.40;;;;;;;;;;5109805;28;20287;-85
2024/03/03 02:18:34;;;;;;;30.20;16.97;;;;;;;;;;5110099;28;20195;-84
2024/03/03 02:21:01;;;;;;;30.73;17.57;;;;;;;;;;5109529;28;20225;-83
2024/03/03 02:23:30;;;;;;;26.07;14.93;;;;;;;;;;5110191;28;20203;-84
2024/03/03 02:25:57;;;;;;;24.97;14.67;;;;;;;;;;5110847;28;20211;-86
2024/03/03 02:28:25;;;;;;;21.73;12.97;;;;;;;;;;5110334;28;20196;-85
2024/03/03 02:30:52;;;;;;;22.37;12.63;;;;;;;;;;5110264;28;20609;-84
2024/03/03 02:33:20;;;;;;;21.23;12.97;;;;;;;;;;5110412;28;20667;-84
2024/03/03 02:35:47;;;;;;;21.87;12.33;;;;;;;;;;5109783;28;20201;-85
2024/03/03 02:38:14;;;;;;;18.13;11.10;;;;;;;;;;5110093;28;20289;-84
2024/03/03 02:40:43;;;;;;;17.83;11.10;;;;;;;;;;5109077;28;20189;-83
2024/03/03 02:43:11;;;;;;;16.27;10.70;;;;;;;;;;5109789;28;20189;-84
2024/03/03 02:45:38;;;;;;;16.17;10.40;;;;;;;;;;5109701;28;20809;-85
2024/03/03 02:48:05;;;;;;;18.03;11.83;;;;;;;;;;5110360;28;20280;-84
2024/03/03 02:50:33;;;;;;;16.10;11.33;;;;;;;;;;5110200;28;20199;-84
2024/03/03 02:53:00;;;;;;;69.60;31.73;;;;;;;;;;5109601;28;20202;-84
2024/03/03 02:55:27;;;;;;;31.03;18.37;;;;;;;;;;5109620;28;20198;-84
2024/03/03 02:57:57;;;;;;;33.20;17.97;;;;;;;;;;5109742;28;20324;-84
2024/03/03 03:00:24;;;;;;;29.00;15.90;;;;;;;;;;5110110;28;20197;-84
2024/03/03 03:02:51;;;;;;;23.37;14.63;;;;;;;;;;5109661;28;20193;-85
2024/03/03 03:05:19;;;;;;;24.07;14.47;;;;;;;;;;5111694;28;20288;-84
2024/03/03 03:07:46;;;;;;;20.73;13.90;;;;;;;;;;5113537;28;20567;-84
2024/03/03 03:10:14;;;;;;;25.77;14.70;;;;;;;;;;5113381;28;20203;-83
2024/03/03 03:12:41;;;;;;;37.13;18.80;;;;;;;;;;5121800;27;20201;-84
2024/03/03 03:15:10;;;;;;;50.40;23.90;;;;;;;;;;5133506;27;20197;-85
2024/03/03 03:17:38;;;;;;;49.73;24.43;;;;;;;;;;5134015;27;20235;-85
2024/03/03 03:20:05;;;;;;;58.67;28.67;;;;;;;;;;5134187;27;20193;-83
2024/03/03 03:22:33;;;;;;;44.83;23.07;;;;;;;;;;5133567;27;20722;-84
2024/03/03 03:25:00;;;;;;;38.47;20.67;;;;;;;;;;5133117;27;20689;-84
2024/03/03 03:27:27;;;;;;;34.00;18.97;;;;;;;;;;5134461;27;20268;-84
2024/03/03 03:29:55;;;;;;;34.73;18.23;;;;;;;;;;5115207;27;20189;-85
2024/03/03 03:32:23;;;;;;;24.93;15.90;;;;;;;;;;5133768;27;20841;-84
2024/03/03 03:34:51;;;;;;;29.33;15.67;;;;;;;;;;5133495;27;20196;-84
2024/03/03 03:37:18;;;;;;;24.90;14.97;;;;;;;;;;5133616;27;20227;-85
2024/03/03 03:39:45;;;;;;;24.53;14.63;;;;;;;;;;5133360;27;20199;-84
2024/03/03 03:42:12;;;;;;;23.60;15.07;;;;;;;;;;5133560;27;20288;-84
2024/03/03 03:44:39;;;;;;;22.70;14.70;;;;;;;;;;5133745;27;20739;-84
2024/03/03 03:47:07;;;;;;;30.00;16.43;;;;;;;;;;5133194;27;20215;-85
2024/03/03 03:49:35;;;;;;;31.97;17.87;;;;;;;;;;5133767;27;20203;-84
2024/03/03 03:52:03;;;;;;;37.30;20.13;;;;;;;;;;5133032;27;21339;-84
2024/03/03 03:54:31;;;;;;;30.67;17.67;;;;;;;;;;5133026;27;20217;-84
2024/03/03 03:56:58;;;;;;;22.57;14.27;;;;;;;;;;5133448;27;20327;-84
2024/03/03 03:59:26;;;;;;;20.50;13.57;;;;;;;;;;5133354;27;20207;-84
2024/03/03 04:01:53;;;;;;;19.53;12.80;;;;;;;;;;5133463;27;20257;-85
2024/03/03 04:04:21;;;;;;;25.60;15.77;;;;;;;;;;5132905;27;20292;-85
2024/03/03 04:06:50;;;;;;;22.87;13.63;;;;;;;;;;5133058;27;20209;-85
2024/03/03 04:09:17;;;;;;;18.53;11.90;;;;;;;;;;5132951;27;20295;-83
2024/03/03 04:11:44;;;;;;;19.67;12.03;;;;;;;;;;5132926;27;20224;-84
2024/03/03 04:14:12;;;;;;;19.50;12.53;;;;;;;;;;5123351;27;20632;-85
2024/03/03 04:16:39;;;;;;;20.40;13.00;;;;;;;;;;5111515;28;20229;-84
2024/03/03 04:19:06;;;;;;;20.20;12.80;;;;;;;;;;5112424;28;20201;-85
2024/03/03 04:21:34;;;;;;;19.50;12.30;;;;;;;;;;5112769;28;20242;-83
2024/03/03 04:24:03;;;;;;;21.60;13.47;;;;;;;;;;5111669;28;20277;-85
2024/03/03 04:26:30;;;;;;;20.87;14.20;;;;;;;;;;5112198;28;20190;-84
2024/03/03 04:28:58;;;;;;;22.07;14.40;;;;;;;;;;5112255;28;20780;-84
2024/03/03 04:31:25;;;;;;;19.97;12.13;;;;;;;;;;5112196;28;20911;-84
2024/03/03 04:33:52;;;;;;;16.50;10.00;;;;;;;;;;5111781;28;20202;-85
2024/03/03 04:36:19;;;;;;;15.87;10.30;;;;;;;;;;5111286;28;20285;-84
2024/03/03 04:38:47;;;;;;;18.00;11.53;;;;;;;;;;5111597;28;20200;-84
2024/03/03 04:41:16;;;;;;;17.80;12.53;;;;;;;;;;5112158;28;20204;-84
2024/03/03 04:43:43;;;;;;;17.47;12.37;;;;;;;;;;5111624;28;20565;-84
2024/03/03 04:46:11;;;;;;;15.73;11.20;;;;;;;;;;5111817;28;20201;-85
2024/03/03 04:48:38;;;;;;;18.03;11.30;;;;;;;;;;5111256;28;20305;-83
2024/03/03 04:51:06;;;;;;;15.30;10.67;;;;;;;;;;5110828;28;20639;-84
2024/03/03 04:53:34;;;;;;;17.97;10.90;;;;;;;;;;5111986;28;20217;-85
2024/03/03 04:56:01;;;;;;;14.70;10.97;;;;;;;;;;5111502;28;20791;-84
2024/03/03 04:58:29;;;;;;;16.67;11.23;;;;;;;;;;5111119;28;20327;-84
2024/03/03 05:00:57;;;;;;;16.47;10.83;;;;;;;;;;5111648;28;20207;-83
2024/03/03 05:03:24;;;;;;;15.23;10.60;;;;;;;;;;5111276;28;20201;-85
2024/03/03 05:05:51;;;;;;;18.80;10.37;;;;;;;;;;5110909;28;20201;-85
2024/03/03 05:08:18;;;;;;;16.80;10.87;;;;;;;;;;5111617;28;20202;-84
2024/03/03 05:10:45;;;;;;;17.57;13.03;;;;;;;;;;5111382;28;20197;-85
2024/03/03 05:13:13;;;;;;;28.23;13.87;;;;;;;;;;5110574;28;20223;-85
2024/03/03 05:15:41;;;;;;;31.67;15.03;;;;;;;;;;5111041;28;20319;-84
2024/03/03 05:18:09;;;;;;;19.77;11.57;;;;;;;;;;5111114;28;20235;-84
2024/03/03 05:20:36;;;;;;;19.80;11.13;;;;;;;;;;5110697;28;20590;-84
2024/03/03 05:23:04;;;;;;;19.47;10.57;;;;;;;;;;5111485;28;20189;-84
2024/03/03 05:25:31;;;;;;;16.70;9.83;;;;;;;;;;5111002;28;20615;-84
2024/03/03 05:27:58;;;;;;;14.73;9.17;;;;;;;;;;5110611;28;20202;-84
2024/03/03 05:30:26;;;;;;;13.90;9.17;;;;;;;;;;5110459;28;20196;-83
2024/03/03 05:32:54;;;;;;;11.70;8.10;;;;;;;;;;5110804;28;20189;-84
2024/03/03 05:35:21;;;;;;;12.83;8.80;;;;;;;;;;5110187;28;20202;-84
2024/03/03 05:37:49;;;;;;;11.63;8.10;;;;;;;;;;5110615;28;20232;-84
2024/03/03 05:40:16;;;;;;;11.37;7.93;;;;;;;;;;5111230;28;20197;-84
2024/03/03 05:42:43;;;;;;;10.77;7.83;;;;;;;;;;5110631;28;20201;-85
2024/03/03 05:45:10;;;;;;;9.60;7.73;;;;;;;;;;5110231;28;20216;-84
2024/03/03 05:47:38;;;;;;;13.27;8.53;;;;;;;;;;5110332;28;20280;-84
2024/03/03 05:50:07;;;;;;;15.07;8.70;;;;;;;;;;5110104;28;20579;-84
2024/03/03 05:52:34;;;;;;;12.67;8.90;;;;;;;;;;5110726;28;20202;-84
2024/03/03 05:55:02;;;;;;;13.50;8.90;;;;;;;;;;5110442;28;20200;-83
2024/03/03 05:57:31;;;;;;;12.17;8.90;;;;;;;;;;5110480;28;20710;-84
2024/03/03 05:59:58;;;;;;;17.07;9.30;;;;;;;;;;5109711;28;21026;-84
2024/03/03 06:02:25;;;;;;;15.83;10.67;;;;;;;;;;5110727;28;20287;-83
2024/03/03 06:04:52;;;;;;;16.23;10.10;;;;;;;;;;5109449;28;20221;-84
2024/03/03 06:07:21;;;;;;;19.27;11.10;;;;;;;;;;5110182;28;20307;-84
2024/03/03 06:09:48;;;;;;;14.63;8.97;;;;;;;;;;5110059;28;20572;-84
2024/03/03 06:12:16;;;;;;;12.93;8.77;;;;;;;;;;5111221;28;20215;-84
2024/03/03 06:14:47;;;;;;;15.27;9.23;;;;;;;;;;5110038;28;20563;-84
2024/03/03 06:17:14;;;;;;;12.97;8.23;;;;;;;;;;5109389;28;20330;-84
2024/03/03 06:19:41;;;;;;;13.67;7.97;;;;;;;;;;5109621;28;20201;-84
2024/03/03 06:22:09;;;;;;;11.23;7.80;;;;;;;;;;5110132;28;20197;-84
2024/03/03 06:24:38;;;;;;;10.30;7.00;;;;;;;;;;5109863;28;20628;-83
2024/03/03 06:27:05;;;;;;;9.03;7.07;;;;;;;;;;5109580;28;20201;-84
2024/03/03 06:29:35;;;;;;;9.60;6.93;;;;;;;;;;5110105;28;20193;-84
2024/03/03 06:32:02;;;;;;;10.80;7.17;;;;;;;;;;5109874;28;20199;-84
2024/03/03 06:34:30;;;;;;;11.47;7.37;;;;;;;;;;5109660;28;20223;-83
2024/03/03 06:36:57;;;;;;;11.10;7.73;;;;;;;;;;5109808;28;20197;-84
2024/03/03 06:39:24;;;;;;;15.50;8.43;;;;;;;;;;5112325;28;20293;-84
2024/03/03 06:41:53;;;;;;;15.90;8.70;;;;;;;;;;5113896;28;20752;-83
2024/03/03 06:44:20;;;;;;;12.27;8.30;;;;;;;;;;5112724;28;20197;-83
2024/03/03 06:46:47;;;;;;;10.97;7.97;;;;;;;;;;5113272;28;20195;-83
2024/03/03 06:49:15;;;;;;;10.93;8.03;;;;;;;;;;5113973;28;20200;-84
2024/03/03 06:51:42;;;;;;;10.93;8.07;;;;;;;;;;5113851;28;20204;-84
2024/03/03 06:54:10;;;;;;;11.90;8.20;;;;;;;;;;5113764;28;20228;-84
2024/03/03 06:56:37;;;;;;;14.23;8.53;;;;;;;;;;5113485;28;20205;-83
2024/03/03 06:59:05;;;;;;;12.13;8.50;;;;;;;;;;5113416;28;20234;-83
2024/03/03 07:01:33;;;;;;;11.87;8.57;;;;;;;;;;5112986;28;20670;-84
2024/03/03 07:04:19;;;;;;;9.67;7.67;;;;;;;;;;5113242;28;20224;-84
2024/03/03 07:06:46;;;;;;;11.43;8.50;;;;;;;;;;5113590;28;20565;-84
2024/03/03 07:09:14;;;;;;;11.63;8.73;;;;;;;;;;5113690;28;20204;-84
2024/03/03 07:11:41;;;;;;;11.33;8.27;;;;;;;;;;5113726;28;20203;-84
2024/03/03 07:14:10;;;;;;;14.40;9.07;;;;;;;;;;5133914;27;20200;-84
2024/03/03 07:16:37;;;;;;;12.83;8.97;;;;;;;;;;5133306;27;20307;-83
2024/03/03 07:19:04;;;;;;;12.27;9.10;;;;;;;;;;5133494;27;20231;-83
2024/03/03 07:21:31;;;;;;;12.97;8.87;;;;;;;;;;5133484;27;20204;-85
2024/03/03 07:23:59;;;;;;;12.73;9.00;;;;;;;;;;5134061;27;20288;-84
2024/03/03 07:26:27;;;;;;;11.97;9.00;;;;;;;;;;5133389;27;20288;-84
2024/03/03 07:28:54;;;;;;;10.90;8.50;;;;;;;;;;5133516;27;20193;-84
2024/03/03 07:31:23;;;;;;;11.37;8.60;;;;;;;;;;5133110;27;20287;-84
2024/03/03 07:33:51;;;;;;;13.13;8.77;;;;;;;;;;5133659;27;20223;-83
2024/03/03 07:36:18;;;;;;;10.80;8.30;;;;;;;;;;5133298;27;20202;-84
2024/03/03 07:38:45;;;;;;;12.27;7.70;;;;;;;;;;5133152;27;20230;-83
2024/03/03 07:41:12;;;;;;;9.73;7.30;;;;;;;;;;5132864;27;20196;-83
2024/03/03 07:43:39;;;;;;;10.27;8.07;;;;;;;;;;5132883;27;20646;-84
2024/03/03 07:46:07;;;;;;;10.60;8.00;;;;;;;;;;5132756;27;20197;-83
2024/03/03 07:48:36;;;;;;;12.67;9.17;;;;;;;;;;5115180;27;20196;-84
2024/03/03 07:51:03;;;;;;;11.07;8.50;;;;;;;;;;5131605;27;20189;-84
2024/03/03 07:53:31;;;;;;;13.87;10.13;;;;;;;;;;5132680;27;20813;-83
2024/03/03 07:55:58;;;;;;;10.47;8.73;;;;;;;;;;5132890;27;20193;-84
2024/03/03 07:58:26;;;;;;;8.63;7.47;;;;;;;;;;5132717;27;20227;-83
2024/03/03 08:00:53;;;;;;;8.23;6.67;;;;;;;;;;5132738;27;20277;-83
2024/03/03 08:03:23;;;;;;;8.93;7.27;;;;;;;;;;5133631;27;20304;-84
2024/03/03 08:05:52;;;;;;;11.37;8.57;;;;;;;;;;5127466;27;20251;-83
2024/03/03 08:08:19;;;;;;;9.80;8.30;;;;;;;;;;5111929;28;20383;-84
2024/03/03 08:10:45;;;;;;;8.83;6.83;;;;;;;;;;5112008;28;20193;-83
2024/03/03 08:13:13;;;;;;;9.20;8.27;;;;;;;;;;5124922;27;20204;-84
2024/03/03 08:15:40;;;;;;;10.07;9.07;;;;;;;;;;5131956;27;20683;-83
2024/03/03 08:18:07;;;;;;;8.47;7.57;;;;;;;;;;5132178;27;20231;-83
2024/03/03 08:20:34;;;;;;;24.00;18.17;;;;;;;;;;5131873;27;20280;-84
2024/03/03 08:23:03;;;;;;;14.80;11.67;;;;;;;;;;5132108;27;20228;-83
2024/03/03 08:25:30;;;;;;;9.13;7.40;;;;;;;;;;5132267;27;20198;-84
2024/03/03 08:28:01;;;;;;;14.17;9.40;;;;;;;;;;5131564;27;20204;-84
2024/03/03 08:30:28;;;;;;;20.65;14.73;;;;;;;;;;5131873;27;20189;-84
2024/03/03 08:32:56;;;;;;;8.45;6.70;;;;;;;;;;5126124;27;20224;-85
2024/03/03 08:35:23;;;;;;;7.97;6.43;;;;;;;;;;5111711;28;20237;-86
2024/03/03 08:37:52;;;;;;;9.43;8.43;;;;;;;;;;5111126;28;20219;-84
2024/03/03 08:40:21;;;;;;;11.90;9.48;;;;;;;;;;5111646;28;20194;-83
2024/03/03 08:42:48;;;;;;;11.85;10.52;;;;;;;;;;5110697;28;20282;-82
2024/03/03 08:45:16;;;;;;;12.00;10.63;;;;;;;;;;5110571;28;20198;-82
2024/03/03 08:47:43;;;;;;;8.70;7.60;;;;;;;;;;5110679;28;20208;-82
2024/03/03 08:50:11;;;;;;;6.38;3.80;;;;;;;;;;5111049;28;20285;-83
2024/03/03 08:52:38;;;;;;;4.05;3.00;;;;;;;;;;5110988;28;20194;-82
2024/03/03 08:55:06;;;;;;;3.50;2.53;;;;;;;;;;5110527;28;20576;-83
2024/03/03 08:57:35;;;;;;;3.75;2.53;;;;;;;;;;5110720;28;20198;-82
2024/03/03 09:00:03;;;;;;;3.30;2.70;;;;;;;;;;5110866;28;20232;-82
2024/03/03 09:02:30;;;;;;;3.22;2.30;;;;;;;;;;5110471;28;20206;-83
2024/03/03 09:04:58;;;;;;;3.30;2.15;;;;;;;;;;5110114;28;20280;-82
2024/03/03 09:07:25;;;;;;;3.13;2.38;;;;;;;;;;5110420;28;20659;-83
2024/03/03 09:09:52;;;;;;;3.30;2.50;;;;;;;;;;5110685;28;20225;-84
2024/03/03 09:12:19;;;;;;;3.75;2.40;;;;;;;;;;5114985;27;20277;-82
2024/03/03 09:14:48;;;;;;;3.00;2.70;;;;;;;;;;5111048;28;20201;-82
2024/03/03 09:17:15;;;;;;;5.38;2.78;;;;;;;;;;5109719;28;20344;-83
2024/03/03 09:19:42;;;;;;;3.35;2.50;;;;;;;;;;5110031;28;20232;-83
2024/03/03 09:22:10;;;;;;;3.97;2.00;;;;;;;;;;5109980;28;20280;-83
2024/03/03 09:24:38;;;;;;;3.35;2.35;;;;;;;;;;5110467;28;20205;-83
2024/03/03 09:27:05;;;;;;;2.45;2.05;;;;;;;;;;5109387;28;20197;-81
2024/03/03 09:29:32;;;;;;;3.45;2.22;;;;;;;;;;5110119;28;20292;-82
2024/03/03 09:32:02;;;;;;;3.30;2.00;;;;;;;;;;5109727;28;20659;-83
2024/03/03 09:34:29;;;;;;;4.57;2.00;;;;;;;;;;5110180;28;20678;-83
2024/03/03 09:36:56;;;;;;;3.90;1.80;;;;;;;;;;5109980;28;20659;-81
2024/03/03 09:39:23;;;;;;;3.00;1.80;;;;;;;;;;5109363;28;20624;-82
2024/03/03 09:41:56;;;;;;;2.85;1.70;;;;;;;;;;5105415;28;20660;-82
2024/03/03 09:44:27;;;;;;;1.92;1.40;;;;;;;;;;5089518;28;20209;-82
2024/03/03 09:46:54;;;;;;;2.80;1.70;;;;;;;;;;5089716;28;20610;-83
2024/03/03 09:49:23;;;;;;;2.20;1.42;;;;;;;;;;5088830;28;20274;-81
2024/03/03 09:51:50;;;;;;;3.03;1.60;;;;;;;;;;5098315;28;20816;-82
2024/03/03 09:54:19;;;;;;;2.35;1.50;;;;;;;;;;5093896;28;20281;-82
2024/03/03 09:56:47;;;;;;;2.05;1.38;;;;;;;;;;5088440;28;20194;-82
2024/03/03 09:59:15;;;;;;;2.13;1.40;;;;;;;;;;5089019;28;20316;-82
2024/03/03 10:01:46;;;;;;;2.10;1.15;;;;;;;;;;5089087;28;20670;-81
2024/03/03 10:04:14;;;;;;;1.33;1.08;;;;;;;;;;5090542;28;20240;-82
2024/03/03 10:06:43;;;;;;;2.30;1.40;;;;;;;;;;5088883;28;20202;-81
2024/03/03 10:09:10;;;;;;;2.55;1.02;;;;;;;;;;5088849;28;20289;-82
2024/03/03 10:11:38;;;;;;;2.35;1.10;;;;;;;;;;5088454;28;20735;-81
2024/03/03 10:14:05;;;;;;;2.60;1.20;;;;;;;;;;5088918;28;20209;-82
2024/03/03 10:16:34;;;;;;;2.72;1.20;;;;;;;;;;5088696;28;20247;-81
2024/03/03 10:19:02;;;;;;;2.38;1.05;;;;;;;;;;5088736;28;20194;-82
2024/03/03 10:21:32;;;;;;;2.72;1.00;;;;;;;;;;5089346;28;20202;-82
2024/03/03 10:24:14;;;;;;;1.45;0.90;;;;;;;;;;5088698;28;20624;-82
2024/03/03 10:26:42;;;;;;;2.38;1.20;;;;;;;;;;5087769;28;20649;-82
2024/03/03 10:29:10;;;;;;;2.65;1.00;;;;;;;;;;5088816;28;20214;-82
2024/03/03 10:31:37;;;;;;;2.22;0.90;;;;;;;;;;5088721;28;20289;-81
2024/03/03 10:34:04;;;;;;;1.65;0.80;;;;;;;;;;5088772;28;20602;-82
2024/03/03 10:36:32;;;;;;;1.90;1.17;;;;;;;;;;5088920;28;20574;-82
2024/03/03 10:38:59;;;;;;;2.10;0.88;;;;;;;;;;5096304;28;20206;-82
2024/03/03 10:41:26;;;;;;;2.47;0.80;;;;;;;;;;5109280;28;20609;-82
2024/03/03 10:43:55;;;;;;;2.65;0.70;;;;;;;;;;5108804;28;20682;-80
2024/03/03 10:46:22;;;;;;;1.30;0.68;;;;;;;;;;5109034;28;20247;-81
2024/03/03 10:48:50;;;;;;;2.25;0.68;;;;;;;;;;5106349;28;20268;-81
2024/03/03 10:51:19;;;;;;;2.20;0.70;;;;;;;;;;5105846;28;20237;-81
2024/03/03 10:53:46;;;;;;;2.33;0.60;;;;;;;;;;5105500;28;20197;-81
2024/03/03 10:56:13;;;;;;;1.92;0.50;;;;;;;;;;5106057;28;20205;-81
2024/03/03 10:58:41;;;;;;;1.30;0.55;;;;;;;;;;5107003;28;20292;-82
2024/03/03 11:01:10;;;;;;;1.15;0.40;;;;;;;;;;5103671;28;20368;-81
2024/03/03 11:03:38;;;;;;;0.80;0.47;;;;;;;;;;5108989;28;20193;-82
2024/03/03 11:06:06;;;;;;;1.48;0.47;;;;;;;;;;5095668;28;20207;-82
2024/03/03 11:08:33;;;;;;;1.67;0.60;;;;;;;;;;5088200;28;20282;-82
2024/03/03 11:11:05;;;;;;;1.17;0.40;;;;;;;;;;5099315;28;20282;-82
2024/03/03 11:13:33;;;;;;;2.30;0.70;;;;;;;;;;5112199;28;20233;-81
2024/03/03 11:16:03;;;;;;;1.67;0.50;;;;;;;;;;5105464;28;20320;-81
2024/03/03 11:18:35;;;;;;;1.42;0.60;;;;;;;;;;5106293;28;20222;-82
2024/03/03 11:21:06;;;;;;;1.98;0.70;;;;;;;;;;5106982;28;20219;-82
2024/03/03 11:23:36;;;;;;;0.95;0.47;;;;;;;;;;5110389;28;20209;-81
2024/03/03 11:26:09;;;;;;;1.67;0.70;;;;;;;;;;5110306;28;20198;-82
2024/03/03 11:28:37;;;;;;;1.40;0.50;;;;;;;;;;5103993;28;20206;-81
2024/03/03 11:31:04;;;;;;;2.20;0.65;;;;;;;;;;5111642;28;20281;-82
2024/03/03 11:33:33;;;;;;;2.47;1.00;;;;;;;;;;5110482;28;20234;-82
2024/03/03 11:36:00;;;;;;;1.33;0.80;;;;;;;;;;5111416;28;20194;-82
2024/03/03 11:38:37;;;;;;;2.08;0.70;;;;;;;;;;5110117;28;20197;-82
2024/03/03 11:41:05;;;;;;;1.52;0.80;;;;;;;;;;5109383;27;20201;-82
2024/03/03 11:43:34;;;;;;;1.77;0.75;;;;;;;;;;5111486;28;20292;-81
2024/03/03 11:46:01;;;;;;;1.38;0.57;;;;;;;;;;5115510;28;20244;-82
2024/03/03 11:48:28;;;;;;;1.70;0.60;;;;;;;;;;5112309;28;20281;-83
2024/03/03 11:51:10;;;;;;;1.65;0.73;;;;;;;;;;5111807;28;20234;-83
2024/03/03 11:53:39;;;;;;;1.67;0.80;;;;;;;;;;5091938;28;20277;-82
2024/03/03 11:56:18;;;;;;;2.33;1.20;;;;;;;;;;5091423;28;20809;-82
2024/03/03 11:58:47;;;;;;;3.33;1.00;;;;;;;;;;5093349;28;20225;-82
2024/03/03 12:01:14;;;;;;;1.52;0.75;;;;;;;;;;5102960;28;20201;-82
2024/03/03 12:03:41;;;;;;;2.03;0.80;;;;;;;;;;5110309;27;20202;-81
2024/03/03 12:06:10;;;;;;;2.97;0.70;;;;;;;;;;5113403;28;20595;-83
2024/03/03 12:08:37;;;;;;;2.30;0.70;;;;;;;;;;5112089;28;20839;-83
2024/03/03 12:11:13;;;;;;;2.28;0.80;;;;;;;;;;5110698;28;20225;-82
2024/03/03 12:13:40;;;;;;;2.95;0.70;;;;;;;;;;5126730;27;20287;-83
2024/03/03 12:16:08;;;;;;;3.03;0.90;;;;;;;;;;5096404;28;20250;-82
2024/03/03 12:18:35;;;;;;;3.28;0.93;;;;;;;;;;5091223;28;20202;-82
2024/03/03 12:21:03;;;;;;;3.38;0.90;;;;;;;;;;5090567;28;20800;-83
2024/03/03 12:23:30;;;;;;;1.88;0.80;;;;;;;;;;5091257;28;20203;-84
2024/03/03 12:25:58;;;;;;;2.42;0.77;;;;;;;;;;5108098;28;20197;-80
2024/03/03 12:28:26;;;;;;;3.17;0.90;;;;;;;;;;5111454;28;20196;-84
2024/03/03 12:30:54;;;;;;;1.55;0.73;;;;;;;;;;5110032;28;20271;-81
2024/03/03 12:33:21;;;;;;;1.83;0.82;;;;;;;;;;5090691;28;20195;-82
2024/03/03 12:35:52;;;;;;;2.97;0.80;;;;;;;;;;5108631;28;20289;-82
2024/03/03 12:38:19;;;;;;;4.57;1.15;;;;;;;;;;5108721;28;20592;-81
2024/03/03 12:40:47;;;;;;;3.28;0.70;;;;;;;;;;5110103;28;20304;-81
2024/03/03 12:43:16;;;;;;;2.70;0.90;;;;;;;;;;5110354;28;20739;-82
2024/03/03 12:45:45;;;;;;;3.03;1.02;;;;;;;;;;5106463;28;20197;-81
2024/03/03 12:48:15;;;;;;;5.20;0.88;;;;;;;;;;5109505;28;20204;-80
2024/03/03 12:50:42;;;;;;;3.25;0.80;;;;;;;;;;5109271;28;20310;-82
2024/03/03 12:53:09;;;;;;;1.65;0.60;;;;;;;;;;5109724;28;20195;-81
2024/03/03 12:55:38;;;;;;;4.07;1.00;;;;;;;;;;5109738;28;20284;-81
2024/03/03 12:58:06;;;;;;;5.13;0.95;;;;;;;;;;5110199;28;20197;-82
2024/03/03 13:00:37;;;;;;;4.45;0.90;;;;;;;;;;5110534;28;20271;-81
2024/03/03 13:03:10;;;;;;;4.47;1.57;;;;;;;;;;5110251;28;20194;-81
2024/03/03 13:05:39;;;;;;;3.20;0.70;;;;;;;;;;5109652;28;20198;-82
2024/03/03 13:08:12;;;;;;;3.73;0.80;;;;;;;;;;5113178;28;20221;-82
2024/03/03 13:10:40;;;;;;;3.53;0.80;;;;;;;;;;5111890;28;20225;-82
2024/03/03 13:13:10;;;;;;;4.13;0.80;;;;;;;;;;5121904;27;20236;-81
2024/03/03 13:15:40;;;;;;;4.27;0.70;;;;;;;;;;5119219;27;20226;-82
2024/03/03 13:18:10;;;;;;;2.47;0.70;;;;;;;;;;5109564;27;20206;-81
2024/03/03 13:20:37;;;;;;;1.60;0.80;;;;;;;;;;5107644;28;20947;-81
2024/03/03 13:23:16;;;;;;;4.93;1.67;;;;;;;;;;5109660;28;20201;-82
2024/03/03 13:25:45;;;;;;;2.80;1.10;;;;;;;;;;5109851;28;20537;-82
2024/03/03 13:28:13;;;;;;;3.93;1.43;;;;;;;;;;5105723;28;20202;-81
2024/03/03 13:30:41;;;;;;;2.30;1.37;;;;;;;;;;5109776;28;20221;-83
2024/03/03 13:33:12;;;;;;;3.60;1.10;;;;;;;;;;5108680;28;20217;-82
2024/03/03 13:35:40;;;;;;;3.92;1.20;;;;;;;;;;5108730;28;20215;-80
2024/03/03 13:38:08;;;;;;;1.58;0.88;;;;;;;;;;5109523;28;20286;-82
2024/03/03 13:40:36;;;;;;;4.30;1.10;;;;;;;;;;5099961;28;20250;-80
2024/03/03 13:43:03;;;;;;;5.00;0.70;;;;;;;;;;5109058;28;20276;-82
2024/03/03 13:45:31;;;;;;;5.23;1.03;;;;;;;;;;5110886;28;20204;-82
2024/03/03 13:47:58;;;;;;;4.03;1.00;;;;;;;;;;5110370;28;20281;-81
2024/03/03 13:50:27;;;;;;;3.37;1.20;;;;;;;;;;5110155;28;20308;-82
2024/03/03 13:52:54;;;;;;;3.30;0.90;;;;;;;;;;5111524;28;20347;-81
2024/03/03 13:55:21;;;;;;;4.88;1.10;;;;;;;;;;5110556;28;20618;-82
2024/03/03 13:57:48;;;;;;;2.85;0.90;;;;;;;;;;5111278;28;20635;-83
2024/03/03 14:00:16;;;;;;;3.25;0.70;;;;;;;;;;5111110;28;20284;-83
2024/03/03 14:02:44;;;;;;;1.65;0.50;;;;;;;;;;5110227;28;20198;-81
2024/03/03 14:05:11;;;;;;;2.67;0.82;;;;;;;;;;5110459;28;20198;-80
2024/03/03 14:07:40;;;;;;;3.75;1.08;;;;;;;;;;5111505;28;20198;-81
2024/03/03 14:10:09;;;;;;;3.50;0.98;;;;;;;;;;5110895;28;20225;-81
2024/03/03 14:12:36;;;;;;;3.15;0.75;;;;;;;;;;5113471;27;20267;-80
2024/03/03 14:15:03;;;;;;;5.53;0.93;;;;;;;;;;5106016;28;20293;-81
2024/03/03 14:17:33;;;;;;;2.25;0.80;;;;;;;;;;5110627;28;20225;-81
2024/03/03 14:20:02;;;;;;;4.72;1.08;;;;;;;;;;5110848;28;20206;-80
2024/03/03 14:22:29;;;;;;;3.20;0.90;;;;;;;;;;5110204;28;20189;-80
2024/03/03 14:24:58;;;;;;;3.70;0.67;;;;;;;;;;5110705;28;20193;-79
2024/03/03 14:27:25;;;;;;;4.80;0.80;;;;;;;;;;5110592;28;20663;-81
2024/03/03 14:29:53;;;;;;;2.37;0.70;;;;;;;;;;5110582;28;20216;-80
2024/03/03 14:32:20;;;;;;;3.07;0.90;;;;;;;;;;5110176;28;20724;-80
2024/03/03 14:34:48;;;;;;;2.57;0.50;;;;;;;;;;5111273;28;20285;-80
2024/03/03 14:37:15;;;;;;;1.37;0.43;;;;;;;;;;5110882;28;20241;-80